Time;durP1;ratioP1;P1;durP2;ratioP2;P2;SDS_P1;SDS_P2;PMS_P1;PMS_P2;Temp;Humidity;BMP_temperature;BMP_pressure;BME280_temperature;BME280_humidity;BME280_pressure;Samples;Min_cycle;Max_cycle;Signal;HPM_P1;HPM_P2
2021/04/28 00:03:07;;;;;;;;;;;4.90;99.90;;;;;;10667069;27;19923;-87
2021/04/28 00:08:08;;;;;;;;;;;5.00;99.90;;;;;;10666679;27;19931;-87
2021/04/28 00:13:11;;;;;;;;;;;4.90;99.90;;;;;;10426786;28;19974;-87
2021/04/28 00:18:13;;;;;;;;;;;6.10;99.90;;;;;;10408484;28;19932;-87
2021/04/28 00:23:15;;;;;;;;;;;5.30;99.90;;;;;;10407902;28;19947;-87
2021/04/28 00:28:16;;;;;;;;;;;4.90;99.90;;;;;;10408332;28;19933;-87
2021/04/28 00:33:17;;;;;;;;;;;4.70;99.90;;;;;;10409408;28;19926;-87
2021/04/28 00:38:19;;;;;;;;;;;5.20;99.90;;;;;;10407716;28;19932;-87
2021/04/28 00:43:21;;;;;;;;;;;5.00;99.90;;;;;;10408104;28;19936;-87
2021/04/28 00:48:23;;;;;;;;;;;4.60;99.90;;;;;;10417687;28;19982;-87
2021/04/28 00:53:25;;;;;;;;;;;4.70;99.90;;;;;;10447808;28;20302;-87
2021/04/28 00:58:26;;;;;;;;;;;5.10;99.90;;;;;;10451620;28;19925;-87
2021/04/28 01:03:28;;;;;;;;;;;5.90;99.90;;;;;;10455588;28;19932;-87
2021/04/28 01:08:30;;;;;;;;;;;4.40;99.90;;;;;;10455518;28;19925;-87
2021/04/28 01:13:32;;;;;;;;;;;4.40;99.90;;;;;;10455170;28;20027;-87
2021/04/28 01:18:33;;;;;;;;;;;4.70;99.90;;;;;;10456263;28;19928;-87
2021/04/28 01:23:34;;;;;;;;;;;4.40;99.90;;;;;;10438035;28;20298;-87
2021/04/28 01:28:35;;;;;;;;;;;4.20;99.90;;;;;;10438102;28;19925;-87
2021/04/28 01:33:39;;;;;;;;;;;4.20;99.90;;;;;;10455221;28;19933;-87
2021/04/28 01:38:42;;;;;;;;;;;4.20;99.90;;;;;;10453871;28;19929;-87
2021/04/28 01:43:44;;;;;;;;;;;4.40;99.90;;;;;;10453879;28;20459;-87
2021/04/28 01:48:46;;;;;;;;;;;5.10;99.90;;;;;;10454483;28;19931;-87
2021/04/28 01:53:47;;;;;;;;;;;4.90;99.90;;;;;;10454186;28;19924;-87
2021/04/28 01:58:51;;;;;;;;;;;6.70;99.90;;;;;;10437363;28;19932;-87
2021/04/28 02:03:53;;;;;;;;;;;4.90;99.90;;;;;;10454899;28;20396;-87
2021/04/28 02:08:55;;;;;;;;;;;5.10;99.90;;;;;;10453718;28;19925;-87
2021/04/28 02:13:57;;;;;;;;;;;7.00;99.90;;;;;;10452067;28;20363;-87
2021/04/28 02:19:06;;;;;;;;;;;3.70;99.90;;;;;;10452824;28;20320;-87
2021/04/28 02:24:08;;;;;;;;;;;3.60;99.90;;;;;;10453717;28;19924;-87
2021/04/28 02:29:10;;;;;;;;;;;3.60;99.90;;;;;;10454127;28;19925;-87
2021/04/28 02:34:12;;;;;;;;;;;3.70;99.90;;;;;;10452742;28;19931;-87
2021/04/28 02:39:21;;;;;;;;;;;5.90;99.90;;;;;;10451922;28;19931;-87
2021/04/28 02:44:24;;;;;;;;;;;3.50;99.90;;;;;;10453812;28;19970;-87
2021/04/28 02:49:26;;;;;;;;;;;3.30;99.90;;;;;;10452466;28;19931;-88
2021/04/28 02:54:28;;;;;;;;;;;3.40;99.90;;;;;;10452286;28;19925;-87
2021/04/28 02:59:29;;;;;;;;;;;3.80;99.90;;;;;;10452126;28;20020;-87
2021/04/28 03:04:30;;;;;;;;;;;4.80;99.90;;;;;;10466047;23;20221;-87
2021/04/28 03:09:32;;;;;;;;;;;4.90;99.90;;;;;;10625142;27;19928;-87
2021/04/28 03:14:34;;;;;;;;;;;3.30;99.90;;;;;;10625703;27;19923;-87
2021/04/28 03:19:36;;;;;;;;;;;3.40;99.90;;;;;;10624867;27;19923;-88
2021/04/28 03:24:37;;;;;;;;;;;3.90;99.90;;;;;;10626508;27;19924;-87
2021/04/28 03:29:39;;;;;;;;;;;3.10;99.90;;;;;;10626587;27;19923;-87
2021/04/28 03:34:40;;;;;;;;;;;3.90;99.90;;;;;;10624677;27;19987;-88
2021/04/28 03:39:42;;;;;;;;;;;3.10;99.90;;;;;;10641975;27;19966;-87
2021/04/28 03:44:43;;;;;;;;;;;2.90;99.90;;;;;;10624318;27;19930;-88
2021/04/28 03:49:45;;;;;;;;;;;4.20;99.90;;;;;;10624685;28;20274;-88
2021/04/28 03:54:46;;;;;;;;;;;3.00;99.90;;;;;;10624543;28;19930;-88
2021/04/28 03:59:47;;;;;;;;;;;3.10;99.90;;;;;;10624405;28;20295;-88
2021/04/28 04:04:49;;;;;;;;;;;3.70;99.90;;;;;;10625523;27;19924;-88
2021/04/28 04:09:50;;;;;;;;;;;2.60;99.90;;;;;;10623952;28;20366;-88
2021/04/28 04:14:51;;;;;;;;;;;4.50;99.90;;;;;;10624059;28;19933;-88
2021/04/28 04:19:52;;;;;;;;;;;3.00;99.90;;;;;;10624536;28;19925;-89
2021/04/28 04:24:54;;;;;;;;;;;3.20;99.90;;;;;;10623833;28;19929;-87
2021/04/28 04:29:56;;;;;;;;;;;3.20;99.90;;;;;;10624727;28;19930;-88
2021/04/28 04:35:04;;;;;;;;;;;3.00;99.90;;;;;;10627607;27;20010;-88
2021/04/28 04:40:05;;;;;;;;;;;3.00;99.90;;;;;;10631868;27;19923;-88
2021/04/28 04:45:07;;;;;;;;;;;2.90;99.90;;;;;;10631619;27;20053;-88
2021/04/28 04:50:08;;;;;;;;;;;3.00;99.90;;;;;;10631497;27;19958;-88
2021/04/28 04:55:10;;;;;;;;;;;3.10;99.90;;;;;;10632585;27;19930;-88
2021/04/28 05:00:11;;;;;;;;;;;3.10;99.90;;;;;;10631408;27;19927;-88
2021/04/28 05:05:13;;;;;;;;;;;3.40;99.90;;;;;;10630225;27;20365;-88
2021/04/28 05:10:14;;;;;;;;;;;3.60;99.90;;;;;;10647912;27;20345;-88
2021/04/28 05:15:16;;;;;;;;;;;6.70;99.90;;;;;;10630669;27;19923;-88
2021/04/28 05:20:17;;;;;;;;;;;4.20;99.90;;;;;;10630211;27;19923;-88
2021/04/28 05:25:19;;;;;;;;;;;4.40;99.90;;;;;;10630135;27;19975;-88
2021/04/28 05:30:20;;;;;;;;;;;5.70;99.90;;;;;;10629402;27;19929;-88
2021/04/28 05:35:22;;;;;;;;;;;4.90;99.90;;;;;;10629984;27;20026;-88
2021/04/28 05:40:23;;;;;;;;;;;6.30;99.90;;;;;;10632520;27;19924;-90
2021/04/28 05:45:25;;;;;;;;;;;5.40;99.90;;;;;;10630142;27;20366;-86
2021/04/28 05:50:27;;;;;;;;;;;5.50;99.90;;;;;;10627872;27;19972;-86
2021/04/28 05:55:28;;;;;;;;;;;6.70;99.90;;;;;;10645837;27;20010;-86
2021/04/28 06:00:29;;;;;;;;;;;7.30;99.90;;;;;;10628747;27;20282;-87
2021/04/28 06:05:31;;;;;;;;;;;7.80;99.90;;;;;;10627978;27;19967;-86
2021/04/28 06:10:33;;;;;;;;;;;6.60;99.90;;;;;;10628208;27;20006;-86
2021/04/28 06:15:36;;;;;;;;;;;8.40;95.30;;;;;;10628206;27;19924;-87
2021/04/28 06:20:37;;;;;;;;;;;7.60;94.70;;;;;;10626696;27;19930;-87
2021/04/28 06:25:39;;;;;;;;;;;7.00;95.90;;;;;;10627523;27;19951;-87
2021/04/28 06:30:41;;;;;;;;;;;8.60;96.50;;;;;;10626537;27;19923;-87
2021/04/28 06:35:42;;;;;;;;;;;7.20;95.90;;;;;;10627573;27;19934;-87
2021/04/28 06:40:43;;;;;;;;;;;7.20;96.40;;;;;;10627055;27;19998;-86
2021/04/28 06:45:45;;;;;;;;;;;7.60;96.20;;;;;;10609315;27;19923;-87
2021/04/28 06:50:46;;;;;;;;;;;7.40;96.70;;;;;;10627833;27;19924;-86
2021/04/28 06:55:48;;;;;;;;;;;8.10;96.00;;;;;;10625688;27;19966;-86
2021/04/28 07:00:50;;;;;;;;;;;7.90;94.30;;;;;;10625601;27;19945;-86
2021/04/28 07:05:52;;;;;;;;;;;8.10;95.40;;;;;;10625529;27;19928;-86
2021/04/28 07:10:53;;;;;;;;;;;9.20;94.40;;;;;;10607845;27;19927;-87
2021/04/28 07:15:55;;;;;;;;;;;8.90;92.30;;;;;;10608362;27;20014;-87
2021/04/28 07:20:57;;;;;;;;;;;9.20;91.60;;;;;;10607935;27;20425;-87
2021/04/28 07:25:58;;;;;;;;;;;9.40;90.00;;;;;;10624514;27;20253;-86
2021/04/28 07:31:00;;;;;;;;;;;11.60;92.60;;;;;;10608057;27;20006;-86
2021/04/28 07:36:01;;;;;;;;;;;9.50;90.90;;;;;;10607435;27;20380;-85
2021/04/28 07:41:03;;;;;;;;;;;10.30;92.50;;;;;;10623952;27;19972;-86
2021/04/28 07:46:04;;;;;;;;;;;10.10;90.70;;;;;;10606681;27;20366;-86
2021/04/28 07:51:06;;;;;;;;;;;9.80;90.60;;;;;;10607322;28;20010;-86
2021/04/28 07:56:07;;;;;;;;;;;11.40;87.60;;;;;;10606532;28;19924;-86
2021/04/28 08:01:09;;;;;;;;;;;12.00;85.90;;;;;;10624123;28;19924;-86
2021/04/28 08:06:10;;;;;;;;;;;13.00;79.70;;;;;;10624423;28;19923;-86
2021/04/28 08:11:11;;;;;;;;;;;12.90;84.20;;;;;;10613376;27;19931;-85
2021/04/28 08:16:16;;;;;;;;;;;13.50;74.70;;;;;;10615241;27;20022;-85
2021/04/28 08:21:18;;;;;;;;;;;13.40;72.30;;;;;;10633462;27;20362;-85
2021/04/28 08:26:20;;;;;;;;;;;13.70;69.40;;;;;;10631979;27;19930;-85
2021/04/28 08:31:22;;;;;;;;;;;14.10;67.70;;;;;;10631042;27;20295;-85
2021/04/28 08:36:24;;;;;;;;;;;14.80;71.00;;;;;;10613219;27;19928;-85
2021/04/28 08:41:25;;;;;;;;;;;14.20;67.70;;;;;;10596584;27;19923;-85
2021/04/28 08:46:28;;;;;;;;;;;15.20;68.00;;;;;;10605673;27;20007;-85
2021/04/28 08:51:30;;;;;;;;;;;15.80;68.20;;;;;;10605665;27;19924;-85
2021/04/28 08:56:32;;;;;;;;;;;16.30;61.30;;;;;;10617887;27;19977;-85
2021/04/28 09:01:39;;;;;;;;;;;15.90;61.80;;;;;;10628443;27;19929;-84
2021/04/28 09:06:40;;;;;;;;;;;16.70;59.60;;;;;;10491551;22;20342;-89
2021/04/28 09:11:51;;;;;;;;;;;17.60;57.80;;;;;;10374781;28;20004;-88
2021/04/28 09:17:00;;;;;;;;;;;17.30;60.20;;;;;;10388999;28;19925;-89
2021/04/28 09:22:05;;;;;;;;;;;17.10;55.30;;;;;;10372670;28;19929;-89
2021/04/28 09:27:24;;;;;;;;;;;16.60;59.70;;;;;;10357074;28;19931;-88
2021/04/28 09:32:29;;;;;;;;;;;17.40;53.90;;;;;;10333562;28;19930;-88
2021/04/28 09:37:31;;;;;;;;;;;17.40;56.10;;;;;;10332462;28;20324;-88
2021/04/28 09:42:49;;;;;;;;;;;18.60;54.30;;;;;;10348642;28;19926;-90
2021/04/28 09:47:51;;;;;;;;;;;17.30;54.70;;;;;;10417133;28;19971;-88
2021/04/28 09:52:52;;;;;;;;;;;17.20;52.50;;;;;;10345658;28;19932;-89
2021/04/28 09:57:54;;;;;;;;;;;17.50;52.60;;;;;;10372488;28;20367;-90
2021/04/28 10:03:07;;;;;;;;;;;18.20;55.10;;;;;;10371885;28;20013;-90
2021/04/28 10:08:10;;;;;;;;;;;18.10;55.90;;;;;;10371483;28;19926;-89
2021/04/28 10:13:12;;;;;;;;;;;17.40;54.20;;;;;;10372703;28;19925;-90
2021/04/28 10:18:15;;;;;;;;;;;18.80;51.90;;;;;;10372636;28;19932;-90
2021/04/28 10:23:17;;;;;;;;;;;18.10;51.70;;;;;;10371211;28;19926;-88
2021/04/28 10:28:19;;;;;;;;;;;17.60;50.80;;;;;;10371291;28;20379;-92
2021/04/28 10:33:25;;;;;;;;;;;17.50;53.50;;;;;;10347364;28;19996;-86
2021/04/28 10:38:27;;;;;;;;;;;18.30;52.60;;;;;;10330260;28;19926;-89
2021/04/28 10:43:35;;;;;;;;;;;19.10;51.90;;;;;;10369046;28;19948;-88
2021/04/28 10:48:40;;;;;;;;;;;19.50;53.40;;;;;;10371443;28;19925;-89
2021/04/28 10:53:42;;;;;;;;;;;19.50;49.80;;;;;;10354161;28;19932;-89
2021/04/28 10:58:44;;;;;;;;;;;18.80;50.60;;;;;;10346297;28;19956;-90
2021/04/28 11:03:50;;;;;;;;;;;19.40;52.70;;;;;;10337021;28;20303;-89
2021/04/28 11:09:04;;;;;;;;;;;18.60;49.80;;;;;;10342902;28;19930;-91
2021/04/28 11:14:08;;;;;;;;;;;18.90;52.10;;;;;;10362806;28;19930;-91
2021/04/28 11:19:13;;;;;;;;;;;18.60;48.90;;;;;;10330288;28;19971;-91
2021/04/28 11:24:15;;;;;;;;;;;19.90;48.80;;;;;;10369149;28;19948;-91
2021/04/28 11:29:17;;;;;;;;;;;19.70;49.20;;;;;;10369299;28;19925;-92
2021/04/28 11:34:19;;;;;;;;;;;20.10;48.60;;;;;;10369741;28;20394;-93
2021/04/28 11:39:38;;;;;;;;;;;20.50;48.90;;;;;;10371270;28;19926;-93
2021/04/28 11:44:46;;;;;;;;;;;19.60;47.40;;;;;;10437872;28;19972;-93
2021/04/28 11:49:48;;;;;;;;;;;20.30;49.00;;;;;;10329291;28;20388;-93
2021/04/28 11:54:57;;;;;;;;;;;20.40;49.30;;;;;;10412465;28;19979;-91
2021/04/28 12:00:06;;;;;;;;;;;19.60;44.10;;;;;;10372777;28;19925;-92
2021/04/28 12:05:07;;;;;;;;;;;20.30;44.90;;;;;;10362274;28;19955;-91
2021/04/28 12:10:14;;;;;;;;;;;21.60;46.80;;;;;;10352328;28;20012;-93
2021/04/28 12:15:16;;;;;;;;;;;20.60;43.20;;;;;;10352062;28;20024;-92
2021/04/28 12:20:19;;;;;;;;;;;21.00;44.80;;;;;;10367702;28;20292;-92
2021/04/28 12:25:20;;;;;;;;;;;20.50;43.20;;;;;;10369419;28;19933;-93
2021/04/28 12:30:24;;;;;;;;;;;20.70;43.50;;;;;;10356375;28;20015;-92
2021/04/28 12:35:31;;;;;;;;;;;21.40;44.30;;;;;;10390967;28;20039;-92
2021/04/28 12:40:33;;;;;;;;;;;21.40;42.70;;;;;;10377590;28;19930;-92
2021/04/28 12:45:36;;;;;;;;;;;21.20;41.50;;;;;;10329722;28;20277;-90
2021/04/28 12:50:38;;;;;;;;;;;21.50;42.60;;;;;;10310676;28;19926;-91
2021/04/28 12:55:40;;;;;;;;;;;21.90;45.70;;;;;;10329831;28;19932;-92
2021/04/28 13:00:42;;;;;;;;;;;21.10;39.10;;;;;;10458843;28;19932;-92
2021/04/28 13:06:09;;;;;;;;;;;21.20;43.00;;;;;;10358480;28;19968;-92
2021/04/28 13:11:14;;;;;;;;;;;21.20;41.40;;;;;;10365343;28;19926;-91
2021/04/28 13:16:26;;;;;;;;;;;21.00;42.50;;;;;;10371870;28;20020;-85
2021/04/28 13:21:29;;;;;;;;;;;20.80;41.30;;;;;;10373236;28;20012;-85
2021/04/28 13:26:31;;;;;;;;;;;20.80;42.30;;;;;;10382015;28;19932;-84
2021/04/28 13:31:38;;;;;;;;;;;21.00;42.60;;;;;;10414522;28;19936;-85
2021/04/28 13:36:46;;;;;;;;;;;20.50;41.10;;;;;;10414729;28;19970;-84
2021/04/28 13:41:54;;;;;;;;;;;20.40;43.80;;;;;;10414677;28;19929;-84
2021/04/28 13:46:56;;;;;;;;;;;20.30;42.60;;;;;;10413731;28;19932;-85
2021/04/28 13:51:59;;;;;;;;;;;21.10;42.00;;;;;;10393628;28;19925;-84
2021/04/28 13:57:04;;;;;;;;;;;20.50;41.20;;;;;;10372312;28;19925;-84
2021/04/28 14:02:06;;;;;;;;;;;21.50;41.10;;;;;;10365403;28;19929;-85
2021/04/28 14:07:07;;;;;;;;;;;21.50;41.90;;;;;;10400868;28;19925;-84
2021/04/28 14:12:09;;;;;;;;;;;22.10;43.20;;;;;;10440196;28;19925;-85
2021/04/28 14:17:11;;;;;;;;;;;22.00;38.70;;;;;;10372592;28;19932;-84
2021/04/28 14:22:12;;;;;;;;;;;22.10;40.10;;;;;;10371158;28;19926;-85
2021/04/28 14:27:13;;;;;;;;;;;21.30;38.90;;;;;;10371900;28;19937;-84
2021/04/28 14:32:15;;;;;;;;;;;21.10;40.70;;;;;;10354698;28;20016;-84
2021/04/28 14:37:16;;;;;;;;;;;21.10;40.50;;;;;;10371587;28;19932;-84
2021/04/28 14:42:18;;;;;;;;;;;20.80;40.20;;;;;;10370404;28;19925;-84
2021/04/28 14:47:19;;;;;;;;;;;20.40;39.90;;;;;;10372041;28;19932;-84
2021/04/28 14:52:21;;;;;;;;;;;20.20;41.00;;;;;;10395042;28;19974;-84
2021/04/28 14:57:22;;;;;;;;;;;20.10;41.30;;;;;;10360649;28;20032;-84
2021/04/28 15:02:23;;;;;;;;;;;20.20;40.70;;;;;;10370778;28;19930;-84
2021/04/28 15:07:25;;;;;;;;;;;20.10;39.40;;;;;;10369632;28;19926;-84
2021/04/28 15:12:26;;;;;;;;;;;20.10;42.00;;;;;;10369898;28;19925;-85
2021/04/28 15:17:28;;;;;;;;;;;19.90;40.30;;;;;;10367436;28;19932;-85
2021/04/28 15:22:29;;;;;;;;;;;19.80;42.00;;;;;;10376323;22;20429;-84
2021/04/28 15:27:31;;;;;;;;;;;19.70;40.60;;;;;;10364764;28;19926;-84
2021/04/28 15:32:32;;;;;;;;;;;19.80;42.00;;;;;;10344537;28;20016;-84
2021/04/28 15:37:34;;;;;;;;;;;19.70;45.50;;;;;;10328981;28;19994;-83
2021/04/28 15:42:35;;;;;;;;;;;19.30;42.90;;;;;;10329209;28;19929;-84
2021/04/28 15:47:37;;;;;;;;;;;19.30;43.10;;;;;;10332505;28;19926;-84
2021/04/28 15:52:38;;;;;;;;;;;19.30;43.50;;;;;;10316284;28;19961;-85
2021/04/28 15:57:40;;;;;;;;;;;19.40;45.10;;;;;;10322709;28;19926;-84
2021/04/28 16:02:41;;;;;;;;;;;19.20;46.50;;;;;;10321173;28;19948;-83
2021/04/28 16:07:43;;;;;;;;;;;19.10;45.10;;;;;;10328839;28;19995;-84
2021/04/28 16:12:46;;;;;;;;;;;19.00;45.50;;;;;;10328653;28;19926;-84
2021/04/28 16:17:48;;;;;;;;;;;19.00;46.80;;;;;;10344448;28;20005;-84
2021/04/28 16:22:49;;;;;;;;;;;18.90;46.50;;;;;;10458684;28;19948;-84
2021/04/28 16:27:51;;;;;;;;;;;18.60;47.50;;;;;;10472370;28;19925;-84
2021/04/28 16:32:53;;;;;;;;;;;18.70;48.60;;;;;;10481994;28;19955;-85
2021/04/28 16:37:55;;;;;;;;;;;18.50;47.90;;;;;;10502440;28;20291;-86
2021/04/28 16:42:57;;;;;;;;;;;18.50;47.90;;;;;;10504599;28;19931;-84
2021/04/28 16:47:59;;;;;;;;;;;18.30;48.00;;;;;;10519784;28;20410;-85
2021/04/28 16:53:00;;;;;;;;;;;18.10;48.00;;;;;;10502756;28;20016;-85
2021/04/28 16:58:01;;;;;;;;;;;17.90;48.90;;;;;;10503576;28;19931;-85
2021/04/28 17:03:03;;;;;;;;;;;17.90;49.30;;;;;;10490046;28;19970;-85
2021/04/28 17:08:05;;;;;;;;;;;17.80;49.80;;;;;;10487128;28;19928;-84
2021/04/28 17:13:06;;;;;;;;;;;17.80;49.20;;;;;;10503623;28;19924;-84
2021/04/28 17:18:07;;;;;;;;;;;17.70;50.50;;;;;;10502664;28;19926;-84
2021/04/28 17:23:09;;;;;;;;;;;17.40;49.00;;;;;;10457126;28;19930;-84
2021/04/28 17:28:11;;;;;;;;;;;17.30;49.80;;;;;;10347837;28;19925;-83
2021/04/28 17:33:12;;;;;;;;;;;17.20;50.00;;;;;;10373089;28;19926;-83
2021/04/28 17:38:13;;;;;;;;;;;17.10;48.80;;;;;;10372322;28;19935;-83
2021/04/28 17:43:15;;;;;;;;;;;17.10;49.50;;;;;;10372019;28;19929;-84
2021/04/28 17:48:16;;;;;;;;;;;17.10;50.80;;;;;;10338545;28;19974;-83
2021/04/28 17:53:18;;;;;;;;;;;17.00;49.20;;;;;;10339385;28;20662;-83
2021/04/28 17:58:20;;;;;;;;;;;16.80;50.90;;;;;;10423669;28;20355;-84
2021/04/28 18:03:23;;;;;;;;;;;16.70;50.10;;;;;;10525961;28;19924;-84
2021/04/28 18:08:25;;;;;;;;;;;16.50;51.80;;;;;;10542740;28;19939;-84
2021/04/28 18:13:32;;;;;;;;;;;16.30;51.10;;;;;;10343752;28;19936;-84
2021/04/28 18:18:33;;;;;;;;;;;16.00;52.50;;;;;;10354374;28;19926;-83
2021/04/28 18:23:43;;;;;;;;;;;15.80;53.00;;;;;;10369945;28;20382;-83
2021/04/28 18:28:44;;;;;;;;;;;15.80;52.10;;;;;;10374227;28;19934;-83
2021/04/28 18:33:46;;;;;;;;;;;15.60;53.10;;;;;;10381757;28;19932;-84
2021/04/28 18:38:47;;;;;;;;;;;15.40;54.00;;;;;;10352291;28;19926;-84
2021/04/28 18:43:49;;;;;;;;;;;15.30;55.90;;;;;;10353317;28;20028;-84
2021/04/28 18:48:50;;;;;;;;;;;15.10;56.80;;;;;;10353377;28;19978;-84
2021/04/28 18:53:52;;;;;;;;;;;15.00;56.10;;;;;;10352287;28;19925;-84
2021/04/28 18:58:53;;;;;;;;;;;14.80;57.00;;;;;;10369137;28;19926;-84
2021/04/28 19:03:55;;;;;;;;;;;14.50;60.00;;;;;;10369425;28;19929;-84
2021/04/28 19:08:56;;;;;;;;;;;14.40;59.60;;;;;;10367589;28;19936;-84
2021/04/28 19:13:58;;;;;;;;;;;14.30;59.10;;;;;;10352035;28;20283;-84
2021/04/28 19:19:00;;;;;;;;;;;14.10;59.90;;;;;;10369322;28;19925;-84
2021/04/28 19:24:01;;;;;;;;;;;13.80;61.30;;;;;;10368918;28;19940;-83
2021/04/28 19:29:03;;;;;;;;;;;13.80;60.40;;;;;;10369173;28;19937;-83
2021/04/28 19:34:04;;;;;;;;;;;13.80;62.80;;;;;;10365752;28;19936;-83
2021/04/28 19:39:06;;;;;;;;;;;13.60;63.80;;;;;;10333542;28;19943;-83
2021/04/28 19:44:08;;;;;;;;;;;13.60;64.20;;;;;;10396056;28;19932;-84
2021/04/28 19:49:10;;;;;;;;;;;13.50;65.10;;;;;;10335667;28;20380;-84
2021/04/28 19:54:11;;;;;;;;;;;13.50;66.10;;;;;;10351712;28;19925;-84
2021/04/28 19:59:12;;;;;;;;;;;13.30;67.70;;;;;;10351699;28;20360;-84
2021/04/28 20:04:14;;;;;;;;;;;13.10;70.80;;;;;;10353959;28;19929;-84
2021/04/28 20:09:16;;;;;;;;;;;13.00;72.60;;;;;;10394874;28;20040;-84
2021/04/28 20:14:17;;;;;;;;;;;12.90;73.80;;;;;;10369797;28;19926;-83
2021/04/28 20:19:18;;;;;;;;;;;12.70;73.20;;;;;;10418173;28;19926;-84
2021/04/28 20:24:20;;;;;;;;;;;12.60;76.40;;;;;;10370891;28;20486;-84
2021/04/28 20:29:21;;;;;;;;;;;12.50;77.50;;;;;;10372350;28;19925;-84
2021/04/28 20:34:22;;;;;;;;;;;12.40;78.70;;;;;;10336469;28;19936;-84
2021/04/28 20:39:27;;;;;;;;;;;12.30;81.80;;;;;;10330297;28;19933;-84
2021/04/28 20:44:29;;;;;;;;;;;12.30;80.90;;;;;;10372339;28;19972;-84
2021/04/28 20:49:30;;;;;;;;;;;12.30;80.70;;;;;;10372295;28;19932;-83
2021/04/28 20:54:31;;;;;;;;;;;12.10;82.40;;;;;;10402685;28;19925;-83
2021/04/28 20:59:34;;;;;;;;;;;12.10;82.60;;;;;;10396860;28;20384;-83
2021/04/28 21:04:35;;;;;;;;;;;12.00;84.60;;;;;;10374002;28;19951;-83
2021/04/28 21:09:36;;;;;;;;;;;11.80;85.00;;;;;;10357234;28;19932;-83
2021/04/28 21:14:38;;;;;;;;;;;11.60;85.60;;;;;;10371797;28;19925;-83
2021/04/28 21:19:45;;;;;;;;;;;11.60;84.30;;;;;;10393378;23;19923;-87
2021/04/28 21:24:47;;;;;;;;;;;11.40;86.00;;;;;;10655814;27;19923;-87
2021/04/28 21:29:48;;;;;;;;;;;11.40;87.10;;;;;;10639309;27;19924;-86
2021/04/28 21:34:50;;;;;;;;;;;11.40;86.30;;;;;;10628805;27;20309;-87
2021/04/28 21:39:51;;;;;;;;;;;11.40;90.30;;;;;;10630129;27;20391;-88
2021/04/28 21:44:53;;;;;;;;;;;11.30;90.00;;;;;;10630396;27;19927;-87
2021/04/28 21:49:54;;;;;;;;;;;11.30;86.00;;;;;;10619284;27;19923;-87
2021/04/28 21:54:56;;;;;;;;;;;11.20;90.40;;;;;;10636681;27;19934;-87
2021/04/28 21:59:57;;;;;;;;;;;11.00;88.70;;;;;;10670460;27;20013;-87
2021/04/28 22:04:58;;;;;;;;;;;11.10;87.50;;;;;;10653757;27;19923;-87
2021/04/28 22:10:00;;;;;;;;;;;11.10;88.40;;;;;;10654027;27;19923;-87
2021/04/28 22:15:01;;;;;;;;;;;11.20;88.80;;;;;;10652852;27;19923;-90
2021/04/28 22:20:03;;;;;;;;;;;10.90;97.80;;;;;;10664160;27;20373;-91
2021/04/28 22:25:05;;;;;;;;;;;10.50;99.90;;;;;;10671538;27;19979;-92
2021/04/28 22:30:07;;;;;;;;;;;10.20;99.90;;;;;;10653107;27;19948;-91
2021/04/28 22:35:08;;;;;;;;;;;9.80;99.90;;;;;;10610608;27;19929;-92
2021/04/28 22:40:10;;;;;;;;;;;9.80;99.90;;;;;;10628676;27;19946;-92
2021/04/28 22:45:11;;;;;;;;;;;9.80;99.90;;;;;;10611233;27;19923;-92
2021/04/28 22:50:13;;;;;;;;;;;9.70;99.90;;;;;;10623708;27;19964;-93
2021/04/28 22:55:16;;;;;;;;;;;10.10;99.90;;;;;;10636401;27;19923;-93
2021/04/28 23:00:19;;;;;;;;;;;9.70;99.90;;;;;;10653364;27;19930;-93
2021/04/28 23:05:20;;;;;;;;;;;9.70;99.90;;;;;;10671783;27;19923;-93
2021/04/28 23:10:22;;;;;;;;;;;9.70;99.90;;;;;;10653052;27;19923;-92
2021/04/28 23:15:23;;;;;;;;;;;9.70;99.90;;;;;;10671336;27;19945;-93
2021/04/28 23:20:24;;;;;;;;;;;9.80;99.90;;;;;;10602075;27;19925;-93
2021/04/28 23:25:26;;;;;;;;;;;10.00;99.90;;;;;;10497146;27;19929;-93
2021/04/28 23:30:27;;;;;;;;;;;9.50;99.90;;;;;;10463854;28;20436;-93
2021/04/28 23:35:29;;;;;;;;;;;9.50;99.90;;;;;;10497593;27;19925;-93
2021/04/28 23:40:30;;;;;;;;;;;9.20;99.90;;;;;;10496280;27;20356;-92
2021/04/28 23:45:31;;;;;;;;;;;9.60;99.90;;;;;;10444603;28;19932;-93
2021/04/28 23:50:32;;;;;;;;;;;9.40;99.90;;;;;;10370272;28;19932;-92
2021/04/28 23:55:34;;;;;;;;;;;9.40;99.90;;;;;;10445540;28;19932;-92
